Time;durP1;ratioP1;P1;durP2;ratioP2;P2;SDS_P1;SDS_P2;PMS_P1;PMS_P2;Temp;Humidity;BMP_temperature;BMP_pressure;BME280_temperature;BME280_humidity;BME280_pressure;Samples;Min_cycle;Max_cycle;Signal;HPM_P1;HPM_P2
2023/01/09 00:00:14;;;;;;;0.70;0.60;;;7.30;83.10;;;;;;5074860;28;20476;-75
2023/01/09 00:02:39;;;;;;;0.63;0.50;;;7.30;83.20;;;;;;5079899;28;20025;-75
2023/01/09 00:05:07;;;;;;;0.75;0.70;;;7.30;82.90;;;;;;5096018;28;20047;-73
2023/01/09 00:07:32;;;;;;;0.30;0.30;;;7.30;82.90;;;;;;5095821;28;20553;-73
2023/01/09 00:09:58;;;;;;;0.47;0.45;;;7.30;82.80;;;;;;5091814;28;20068;-74
2023/01/09 00:12:24;;;;;;;0.50;0.50;;;7.30;83.00;;;;;;5072488;28;20047;-74
2023/01/09 00:14:49;;;;;;;0.60;0.60;;;7.30;83.30;;;;;;5073827;28;20499;-73
2023/01/09 00:17:15;;;;;;;0.50;0.50;;;7.40;82.30;;;;;;5073679;28;20028;-73
2023/01/09 00:19:40;;;;;;;0.47;0.47;;;7.40;82.30;;;;;;5073612;28;20035;-73
2023/01/09 00:22:08;;;;;;;0.50;0.50;;;7.50;82.50;;;;;;5073529;28;20026;-73
2023/01/09 00:24:36;;;;;;;0.77;0.60;;;7.50;82.30;;;;;;5073491;28;20476;-74
2023/01/09 00:27:03;;;;;;;0.40;0.40;;;7.50;83.20;;;;;;5055667;28;20024;-73
2023/01/09 00:29:28;;;;;;;1.40;0.68;;;7.50;82.90;;;;;;5073431;28;20088;-73
2023/01/09 00:31:54;;;;;;;0.60;0.60;;;7.40;82.70;;;;;;5073300;28;20369;-73
2023/01/09 00:34:19;;;;;;;0.75;0.50;;;7.40;82.40;;;;;;5073469;28;20024;-73
2023/01/09 00:36:45;;;;;;;0.68;0.68;;;7.40;82.70;;;;;;5082280;28;20027;-74
2023/01/09 00:39:11;;;;;;;0.60;0.60;;;7.40;82.20;;;;;;5075931;28;20538;-74
2023/01/09 00:41:42;;;;;;;0.68;0.60;;;7.50;82.50;;;;;;5073118;28;20031;-73
2023/01/09 00:44:12;;;;;;;0.40;0.40;;;7.40;82.10;;;;;;5073337;28;20376;-73
2023/01/09 00:46:42;;;;;;;1.10;0.68;;;7.50;82.20;;;;;;5073233;28;20024;-73
2023/01/09 00:49:09;;;;;;;0.52;0.52;;;7.50;81.20;;;;;;5072803;28;20024;-73
2023/01/09 00:51:36;;;;;;;0.30;0.30;;;7.60;80.90;;;;;;5073330;28;20031;-77
2023/01/09 00:54:03;;;;;;;0.40;0.40;;;7.60;80.80;;;;;;5073125;28;20044;-73
2023/01/09 00:56:28;;;;;;;0.40;0.40;;;7.60;81.50;;;;;;5072986;28;20028;-74
2023/01/09 00:58:54;;;;;;;0.40;0.40;;;7.70;80.90;;;;;;5071528;28;20082;-73
2023/01/09 01:01:20;;;;;;;0.40;0.40;;;7.70;80.00;;;;;;5073035;28;20069;-73
2023/01/09 01:03:46;;;;;;;1.35;0.40;;;7.80;79.90;;;;;;5072735;28;20024;-74
2023/01/09 01:08:55;;;;;;;0.63;0.40;;;7.70;81.50;;;;;;5073904;28;20115;-74
2023/01/09 01:11:21;;;;;;;0.88;0.50;;;7.70;80.80;;;;;;5073053;28;20052;-73
2023/01/09 01:13:47;;;;;;;0.40;0.35;;;7.70;81.00;;;;;;5054951;28;20433;-74
2023/01/09 01:16:12;;;;;;;0.45;0.45;;;7.80;79.80;;;;;;5072751;28;20122;-74
2023/01/09 01:18:38;;;;;;;0.52;0.47;;;7.80;80.10;;;;;;5072733;28;20423;-73
2023/01/09 01:21:08;;;;;;;1.45;0.50;;;7.80;80.40;;;;;;5072863;28;20103;-74
2023/01/09 01:23:34;;;;;;;0.50;0.32;;;7.80;81.10;;;;;;5072861;28;20078;-74
2023/01/09 01:26:09;;;;;;;0.50;0.50;;;7.80;80.20;;;;;;5072686;28;20025;-73
2023/01/09 01:28:34;;;;;;;0.52;0.50;;;7.80;80.50;;;;;;5054627;28;20393;-74
2023/01/09 01:31:00;;;;;;;0.47;0.32;;;7.80;80.80;;;;;;5072780;28;20025;-73
2023/01/09 01:33:25;;;;;;;1.00;0.50;;;7.70;80.80;;;;;;5072645;28;20017;-74
2023/01/09 01:36:05;;;;;;;0.40;0.40;;;7.80;80.50;;;;;;5072716;28;20032;-73
2023/01/09 01:38:31;;;;;;;0.47;0.47;;;7.80;80.60;;;;;;5072670;28;20077;-75
2023/01/09 01:40:58;;;;;;;0.77;0.57;;;7.80;80.50;;;;;;5075646;28;20124;-74
2023/01/09 01:43:24;;;;;;;0.52;0.50;;;7.80;80.50;;;;;;5076458;28;20024;-73
2023/01/09 01:45:49;;;;;;;0.38;0.25;;;7.80;80.00;;;;;;5058677;28;20376;-74
2023/01/09 01:48:28;;;;;;;0.65;0.45;;;7.80;80.40;;;;;;5058553;28;20025;-74
2023/01/09 01:50:58;;;;;;;0.30;0.30;;;7.80;79.10;;;;;;5076510;28;20032;-73
2023/01/09 01:53:44;;;;;;;0.40;0.40;;;7.80;79.40;;;;;;5076169;28;20052;-74
2023/01/09 01:56:15;;;;;;;0.50;0.50;;;7.80;79.60;;;;;;5075383;28;20143;-74
2023/01/09 01:58:46;;;;;;;0.40;0.40;;;7.80;79.50;;;;;;5076378;28;20035;-74
2023/01/09 02:01:12;;;;;;;1.17;0.57;;;7.90;79.50;;;;;;5076169;28;20032;-73
2023/01/09 02:03:40;;;;;;;0.40;0.40;;;7.90;79.40;;;;;;5076112;28;20032;-74
2023/01/09 02:06:06;;;;;;;0.50;0.50;;;7.90;79.40;;;;;;5058247;28;20070;-74
2023/01/09 02:08:32;;;;;;;0.40;0.40;;;7.80;79.50;;;;;;5058193;28;20071;-73
2023/01/09 02:10:58;;;;;;;0.55;0.30;;;7.80;79.60;;;;;;5076054;28;20040;-74
2023/01/09 02:13:26;;;;;;;2.88;0.40;;;7.80;79.80;;;;;;5076043;28;20059;-74
2023/01/09 02:16:12;;;;;;;0.47;0.47;;;7.90;79.10;;;;;;5076183;28;20033;-74
2023/01/09 02:19:15;;;;;;;0.38;0.38;;;7.90;78.60;;;;;;5057985;28;20035;-73
2023/01/09 02:22:20;;;;;;;0.30;0.30;;;7.90;78.80;;;;;;5075875;28;20021;-73
2023/01/09 02:25:07;;;;;;;0.40;0.40;;;7.90;77.50;;;;;;5011986;28;20089;-74
2023/01/09 02:28:09;;;;;;;0.45;0.40;;;7.90;77.20;;;;;;5099242;28;20025;-73
2023/01/09 02:31:07;;;;;;;0.75;0.40;;;7.90;77.00;;;;;;5098745;28;20043;-73
2023/01/09 02:33:48;;;;;;;0.40;0.20;;;7.90;76.40;;;;;;5064855;28;20125;-75
2023/01/09 02:36:26;;;;;;;0.30;0.30;;;7.80;75.60;;;;;;5076377;28;20024;-75
2023/01/09 02:39:17;;;;;;;0.22;0.20;;;7.80;75.70;;;;;;5078402;28;20013;-74
2023/01/09 02:42:04;;;;;;;0.30;0.30;;;7.80;75.70;;;;;;5077535;28;20033;-74
2023/01/09 02:44:33;;;;;;;1.13;0.30;;;7.70;76.20;;;;;;5058387;28;20027;-74
2023/01/09 02:47:28;;;;;;;0.40;0.20;;;7.70;75.70;;;;;;5075270;28;20048;-77
2023/01/09 02:50:03;;;;;;;0.60;0.20;;;7.70;75.50;;;;;;5075272;28;20032;-74
2023/01/09 02:53:06;;;;;;;0.50;0.35;;;7.70;76.10;;;;;;5073768;28;20048;-74
2023/01/09 02:56:04;;;;;;;1.83;0.30;;;7.70;77.00;;;;;;5057128;28;20025;-77
2023/01/09 02:58:49;;;;;;;0.40;0.40;;;7.60;78.80;;;;;;5075287;28;20025;-73
2023/01/09 03:01:23;;;;;;;0.45;0.30;;;7.50;81.10;;;;;;5075235;28;20016;-73
2023/01/09 03:03:55;;;;;;;0.52;0.45;;;7.40;81.20;;;;;;5075274;28;20013;-73
2023/01/09 03:06:20;;;;;;;0.40;0.38;;;7.30;81.70;;;;;;5075039;28;20035;-73
2023/01/09 03:08:52;;;;;;;1.05;0.50;;;7.30;82.00;;;;;;5075120;28;20029;-73
2023/01/09 03:11:20;;;;;;;1.05;0.40;;;7.30;82.30;;;;;;5075081;28;20090;-72
2023/01/09 03:13:58;;;;;;;1.55;0.15;;;7.20;83.10;;;;;;5074845;28;20100;-73
2023/01/09 03:16:30;;;;;;;0.52;0.30;;;7.20;83.10;;;;;;5074773;28;20035;-74
2023/01/09 03:18:58;;;;;;;0.28;0.28;;;7.10;83.60;;;;;;5057034;28;20029;-74
2023/01/09 03:21:24;;;;;;;0.25;0.20;;;7.00;84.50;;;;;;5074779;28;20091;-73
2023/01/09 03:23:52;;;;;;;0.60;0.30;;;7.00;84.90;;;;;;5074753;28;20025;-74
2023/01/09 03:26:18;;;;;;;1.30;0.55;;;6.90;85.80;;;;;;5074772;28;20024;-73
2023/01/09 03:28:44;;;;;;;0.20;0.20;;;6.80;86.70;;;;;;5074633;28;20032;-73
2023/01/09 03:31:10;;;;;;;2.28;0.20;;;6.70;87.20;;;;;;5073386;28;20028;-73
2023/01/09 03:33:35;;;;;;;0.75;0.20;;;6.60;87.60;;;;;;5074559;28;20078;-73
2023/01/09 03:36:01;;;;;;;0.40;0.13;;;6.50;87.80;;;;;;5074590;28;20028;-73
2023/01/09 03:38:27;;;;;;;0.10;0.10;;;6.40;87.90;;;;;;5074432;28;20028;-74
2023/01/09 03:40:52;;;;;;;0.63;0.22;;;6.40;87.70;;;;;;5074149;28;20511;-73
2023/01/09 03:43:18;;;;;;;0.47;0.10;;;6.40;87.90;;;;;;5074472;28;20020;-74
2023/01/09 03:45:43;;;;;;;0.10;0.10;;;6.40;87.80;;;;;;5074322;28;20021;-73
2023/01/09 03:48:09;;;;;;;1.15;0.03;;;6.40;87.80;;;;;;5073033;28;20020;-74
2023/01/09 03:50:35;;;;;;;0.57;0.15;;;6.60;87.60;;;;;;5073984;28;20141;-75
2023/01/09 03:53:00;;;;;;;0.15;0.15;;;6.60;87.10;;;;;;5074125;28;20044;-74
2023/01/09 03:55:26;;;;;;;0.30;0.10;;;6.70;86.80;;;;;;5074223;28;20472;-73
2023/01/09 03:57:52;;;;;;;0.10;0.10;;;6.80;86.80;;;;;;5074258;28;20465;-75
2023/01/09 04:00:19;;;;;;;0.52;0.25;;;6.80;86.90;;;;;;5056067;28;20115;-76
2023/01/09 04:02:45;;;;;;;0.20;0.20;;;6.80;86.90;;;;;;5055830;28;20376;-74
2023/01/09 04:05:11;;;;;;;0.50;0.20;;;6.80;87.20;;;;;;5074175;28;20029;-73
2023/01/09 04:07:36;;;;;;;0.85;0.20;;;6.70;87.60;;;;;;5073793;28;20020;-74
2023/01/09 04:10:03;;;;;;;0.43;0.10;;;6.50;88.10;;;;;;5073560;28;20037;-74
2023/01/09 04:12:28;;;;;;;0.10;0.10;;;6.40;87.50;;;;;;5073747;28;20029;-74
2023/01/09 04:14:55;;;;;;;0.00;0.00;;;6.30;85.40;;;;;;5073781;28;20100;-73
2023/01/09 04:17:20;;;;;;;0.32;0.10;;;6.00;84.60;;;;;;5073462;28;20032;-74
2023/01/09 04:19:46;;;;;;;0.30;0.05;;;5.90;84.80;;;;;;5073666;28;20028;-73
2023/01/09 04:22:11;;;;;;;0.45;0.10;;;5.70;86.00;;;;;;5073556;28;20024;-74
2023/01/09 04:24:37;;;;;;;0.57;0.20;;;5.60;87.50;;;;;;5073617;28;20077;-74
2023/01/09 04:27:02;;;;;;;0.25;0.00;;;5.50;87.70;;;;;;5073167;28;20019;-74
2023/01/09 04:29:28;;;;;;;0.28;0.10;;;5.50;88.60;;;;;;5073428;28;20115;-74
2023/01/09 04:31:53;;;;;;;0.35;0.10;;;5.50;88.90;;;;;;5073316;28;20055;-74
2023/01/09 04:34:24;;;;;;;0.52;0.20;;;5.60;88.80;;;;;;5073349;28;20058;-74
2023/01/09 04:36:51;;;;;;;0.88;0.40;;;5.60;88.40;;;;;;5073312;28;20017;-74
2023/01/09 04:39:16;;;;;;;0.10;0.08;;;5.60;88.30;;;;;;5073370;28;20027;-74
2023/01/09 04:41:47;;;;;;;0.20;0.17;;;5.60;86.50;;;;;;5073222;28;20021;-74
2023/01/09 04:44:13;;;;;;;0.28;0.17;;;5.60;84.50;;;;;;5055199;28;20020;-74
2023/01/09 04:46:39;;;;;;;0.85;0.38;;;5.30;85.50;;;;;;5073037;28;20384;-74
2023/01/09 04:49:04;;;;;;;2.00;0.15;;;5.20;85.60;;;;;;5073139;28;20041;-72
2023/01/09 04:51:30;;;;;;;0.63;0.20;;;5.30;85.00;;;;;;5055235;28;20040;-73
2023/01/09 04:53:55;;;;;;;1.35;0.10;;;5.20;86.20;;;;;;5072888;28;20051;-73
2023/01/09 04:56:21;;;;;;;0.55;0.10;;;5.20;85.40;;;;;;5073509;28;20029;-73
2023/01/09 04:58:47;;;;;;;0.32;0.20;;;5.30;85.20;;;;;;5078847;28;20036;-74
2023/01/09 05:01:12;;;;;;;0.98;0.47;;;5.30;85.20;;;;;;5085146;28;20024;-73
2023/01/09 05:03:38;;;;;;;1.67;0.20;;;5.30;85.50;;;;;;5093550;28;20021;-73
2023/01/09 05:06:04;;;;;;;1.92;0.40;;;5.40;85.40;;;;;;5089964;28;20077;-72
2023/01/09 05:08:29;;;;;;;0.20;0.10;;;5.40;85.70;;;;;;5087844;28;20017;-72
2023/01/09 05:10:55;;;;;;;0.43;0.28;;;5.30;86.00;;;;;;5084365;28;20040;-74
2023/01/09 05:13:20;;;;;;;1.20;0.30;;;5.30;86.30;;;;;;5073027;28;20027;-73
2023/01/09 05:15:46;;;;;;;0.70;0.25;;;5.20;86.90;;;;;;5072337;28;20028;-73
2023/01/09 05:18:11;;;;;;;1.15;0.50;;;5.20;87.10;;;;;;5072952;28;20027;-73
2023/01/09 05:20:37;;;;;;;0.88;0.40;;;5.20;87.10;;;;;;5072744;28;20427;-73
2023/01/09 05:23:03;;;;;;;0.55;0.30;;;5.20;86.70;;;;;;5072882;28;20020;-75
2023/01/09 05:25:28;;;;;;;0.77;0.40;;;5.20;86.70;;;;;;5072806;28;20028;-74
2023/01/09 05:27:54;;;;;;;1.10;0.30;;;5.30;86.50;;;;;;5072819;28;20020;-73
2023/01/09 05:30:20;;;;;;;0.85;0.60;;;5.30;86.30;;;;;;5072731;28;20080;-73
2023/01/09 05:32:45;;;;;;;0.45;0.30;;;5.30;85.60;;;;;;5072794;28;20051;-73
2023/01/09 05:35:11;;;;;;;2.58;0.30;;;5.30;84.10;;;;;;5072795;28;20017;-73
2023/01/09 05:37:36;;;;;;;1.15;0.32;;;5.30;82.80;;;;;;5072621;28;20645;-73
2023/01/09 05:40:02;;;;;;;1.00;0.28;;;5.20;81.50;;;;;;5072654;28;20028;-73
2023/01/09 05:42:28;;;;;;;0.85;0.40;;;5.30;80.40;;;;;;5072763;28;20028;-73
2023/01/09 05:44:53;;;;;;;5.03;1.00;;;5.20;79.50;;;;;;5072545;28;20039;-73
2023/01/09 05:47:19;;;;;;;3.42;1.15;;;5.20;79.90;;;;;;5072288;28;20043;-73
2023/01/09 05:49:44;;;;;;;0.55;0.30;;;5.20;79.80;;;;;;5072657;28;20028;-73
2023/01/09 05:52:10;;;;;;;2.95;0.40;;;5.20;79.60;;;;;;5072489;28;20048;-73
2023/01/09 05:54:35;;;;;;;1.00;0.32;;;5.20;79.30;;;;;;5072619;28;20020;-73
2023/01/09 05:57:01;;;;;;;2.25;0.47;;;5.20;79.70;;;;;;5072610;28;20107;-73
2023/01/09 05:59:26;;;;;;;1.27;0.40;;;5.20;78.80;;;;;;5072648;28;20103;-72
2023/01/09 06:01:53;;;;;;;2.33;1.25;;;5.30;78.70;;;;;;5054502;28;20021;-73
2023/01/09 06:04:18;;;;;;;0.57;0.45;;;5.20;77.80;;;;;;5072481;28;20025;-75
2023/01/09 06:06:44;;;;;;;1.65;0.90;;;5.30;77.10;;;;;;5072380;28;20025;-72
2023/01/09 06:09:10;;;;;;;0.98;0.38;;;5.30;77.60;;;;;;5072231;28;20028;-72
2023/01/09 06:11:37;;;;;;;3.63;1.48;;;5.20;76.90;;;;;;5072454;28;20029;-72
2023/01/09 06:14:03;;;;;;;3.92;0.82;;;5.20;77.80;;;;;;5049141;28;20023;-72
2023/01/09 06:16:29;;;;;;;1.20;0.50;;;5.20;78.50;;;;;;4989870;28;20069;-72
2023/01/09 06:18:55;;;;;;;1.67;0.40;;;5.20;78.10;;;;;;4989500;28;20061;-73
2023/01/09 06:21:20;;;;;;;2.67;0.52;;;5.20;77.70;;;;;;4989756;28;20102;-73
2023/01/09 06:23:46;;;;;;;1.65;0.25;;;5.20;74.90;;;;;;4989632;28;20037;-73
2023/01/09 06:26:12;;;;;;;4.25;0.57;;;5.20;74.50;;;;;;4973860;28;20497;-73
2023/01/09 06:28:37;;;;;;;4.97;0.75;;;5.20;75.00;;;;;;4975252;28;20034;-73
2023/01/09 06:31:03;;;;;;;1.67;0.32;;;5.20;73.60;;;;;;4992741;28;20030;-73
2023/01/09 06:33:28;;;;;;;4.00;0.82;;;5.20;73.80;;;;;;4991598;28;20022;-72
2023/01/09 06:35:54;;;;;;;0.32;0.20;;;5.20;73.40;;;;;;4992860;28;20026;-74
2023/01/09 06:38:19;;;;;;;1.35;0.45;;;5.20;72.50;;;;;;4992960;28;20056;-73
2023/01/09 06:40:46;;;;;;;2.58;0.52;;;5.10;73.50;;;;;;4992835;28;20060;-72
2023/01/09 06:43:12;;;;;;;2.85;0.45;;;5.10;73.20;;;;;;4992912;28;20053;-73
2023/01/09 06:45:37;;;;;;;0.98;0.20;;;5.00;73.10;;;;;;4992950;28;20055;-73
2023/01/09 06:48:03;;;;;;;6.88;0.82;;;5.10;72.90;;;;;;4992987;28;20029;-73
2023/01/09 06:50:28;;;;;;;0.45;0.20;;;5.00;73.90;;;;;;4992601;28;20499;-73
2023/01/09 06:52:54;;;;;;;1.75;0.40;;;4.90;74.80;;;;;;4992566;28;20161;-72
2023/01/09 06:55:20;;;;;;;2.90;0.57;;;4.90;73.90;;;;;;4992706;28;20027;-73
2023/01/09 06:57:45;;;;;;;2.45;0.50;;;4.80;74.00;;;;;;4992573;28;20019;-74
2023/01/09 07:00:11;;;;;;;3.25;0.73;;;4.80;73.60;;;;;;4992219;28;20031;-74
2023/01/09 07:02:37;;;;;;;3.03;0.70;;;4.90;73.90;;;;;;4992695;28;20562;-73
2023/01/09 07:05:06;;;;;;;0.95;0.35;;;4.90;74.00;;;;;;4992506;28;20105;-74
2023/01/09 07:07:32;;;;;;;4.15;0.50;;;4.90;73.40;;;;;;4992420;28;20051;-76
2023/01/09 07:09:57;;;;;;;3.95;0.68;;;4.90;72.80;;;;;;4992394;28;20440;-73
2023/01/09 07:12:23;;;;;;;3.10;0.68;;;4.90;72.90;;;;;;4992379;28;20022;-73
2023/01/09 07:14:48;;;;;;;4.70;1.00;;;4.90;72.90;;;;;;4992308;28;20030;-73
2023/01/09 07:17:14;;;;;;;3.88;0.77;;;5.00;72.60;;;;;;4992169;28;20580;-73
2023/01/09 07:19:40;;;;;;;5.32;0.75;;;5.00;72.60;;;;;;4975032;28;20125;-74
2023/01/09 07:22:05;;;;;;;3.97;0.75;;;5.00;72.30;;;;;;4975108;28;20029;-75
2023/01/09 07:24:31;;;;;;;4.18;0.93;;;5.00;72.40;;;;;;4992280;28;20033;-73
2023/01/09 07:26:57;;;;;;;4.47;0.82;;;5.00;72.10;;;;;;4991937;28;20030;-73
2023/01/09 07:29:22;;;;;;;5.28;1.17;;;5.00;72.20;;;;;;4992233;28;20037;-72
2023/01/09 07:31:48;;;;;;;7.82;1.00;;;5.00;72.20;;;;;;4992242;28;20042;-73
2023/01/09 07:34:13;;;;;;;5.00;0.80;;;5.00;72.40;;;;;;4990739;28;20032;-75
2023/01/09 07:36:39;;;;;;;7.00;1.10;;;5.00;72.60;;;;;;4992078;28;20057;-73
2023/01/09 07:39:04;;;;;;;4.28;0.68;;;5.00;72.90;;;;;;4991442;28;20102;-76
2023/01/09 07:41:30;;;;;;;5.63;0.88;;;5.00;72.40;;;;;;4991898;28;20046;-74
2023/01/09 07:43:56;;;;;;;7.47;0.80;;;5.10;72.70;;;;;;4991800;28;20490;-73
2023/01/09 07:46:22;;;;;;;5.85;0.82;;;5.20;71.70;;;;;;4991995;28;20018;-72
2023/01/09 07:48:47;;;;;;;4.38;0.70;;;5.20;72.00;;;;;;4991842;28;20471;-74
2023/01/09 07:51:14;;;;;;;5.72;1.63;;;5.20;72.40;;;;;;4992263;28;20060;-73
2023/01/09 07:53:39;;;;;;;3.47;0.65;;;5.20;71.80;;;;;;4974431;28;20185;-72
2023/01/09 07:56:05;;;;;;;5.78;1.13;;;5.20;72.10;;;;;;4991716;28;20041;-73
2023/01/09 07:58:31;;;;;;;7.50;1.02;;;5.10;72.40;;;;;;4991767;28;20504;-72
2023/01/09 08:00:56;;;;;;;4.75;1.00;;;5.10;72.40;;;;;;4992083;28;20031;-73
2023/01/09 08:03:22;;;;;;;9.05;1.23;;;5.10;72.80;;;;;;4992456;28;20363;-73
2023/01/09 08:05:47;;;;;;;6.65;1.23;;;5.10;72.90;;;;;;4992323;28;20026;-73
2023/01/09 08:08:13;;;;;;;6.38;1.38;;;5.10;73.10;;;;;;4992033;28;20026;-73
2023/01/09 08:10:39;;;;;;;4.68;0.73;;;5.10;72.70;;;;;;4991786;28;20037;-73
2023/01/09 08:13:05;;;;;;;9.85;1.98;;;5.10;72.60;;;;;;4992111;28;20383;-73
2023/01/09 08:15:32;;;;;;;12.07;2.45;;;5.20;72.40;;;;;;4991723;28;20367;-72
2023/01/09 08:17:58;;;;;;;9.27;1.63;;;5.10;72.80;;;;;;4992326;28;20111;-74
2023/01/09 08:20:23;;;;;;;6.63;1.58;;;5.20;72.70;;;;;;4992064;28;20478;-74
2023/01/09 08:22:49;;;;;;;4.53;0.98;;;5.20;72.70;;;;;;4992785;28;20066;-74
2023/01/09 08:25:15;;;;;;;3.95;0.90;;;5.20;71.80;;;;;;5011161;28;20030;-74
2023/01/09 08:27:41;;;;;;;9.15;1.52;;;5.30;72.00;;;;;;5013076;28;20044;-76
2023/01/09 08:30:08;;;;;;;3.53;0.60;;;5.40;72.40;;;;;;5014543;28;20055;-74
2023/01/09 08:32:34;;;;;;;10.88;1.38;;;5.30;72.60;;;;;;5015549;28;20036;-79
2023/01/09 08:35:00;;;;;;;6.32;1.10;;;5.40;74.00;;;;;;4998746;28;20034;-82
2023/01/09 08:37:26;;;;;;;10.90;1.23;;;5.80;75.40;;;;;;5001770;28;20030;-79
2023/01/09 08:39:52;;;;;;;7.10;1.27;;;6.00;73.60;;;;;;4987436;28;20360;-81
2023/01/09 08:47:46;;;;;;;8.50;1.15;;;6.40;69.50;;;;;;4972382;28;20034;-85
2023/01/09 08:50:12;;;;;;;6.38;0.98;;;6.40;69.30;;;;;;4954334;28;20031;-83
2023/01/09 08:52:37;;;;;;;2.95;1.02;;;6.20;68.70;;;;;;4955130;28;20073;-84
2023/01/09 08:55:03;;;;;;;8.73;1.15;;;6.20;70.00;;;;;;4955647;28;20038;-84
2023/01/09 08:57:29;;;;;;;5.03;0.88;;;6.00;70.60;;;;;;4956048;28;20033;-81
2023/01/09 08:59:54;;;;;;;6.03;0.90;;;5.90;69.50;;;;;;4971453;28;20106;-84
2023/01/09 09:02:20;;;;;;;8.55;0.88;;;6.10;69.90;;;;;;4971214;28;20027;-86
2023/01/09 09:04:46;;;;;;;7.75;1.05;;;6.30;68.80;;;;;;4954803;28;20049;-85
2023/01/09 09:07:13;;;;;;;5.10;1.13;;;6.60;67.50;;;;;;4970712;28;20022;-85
2023/01/09 09:09:38;;;;;;;4.60;1.10;;;6.80;67.70;;;;;;4954113;28;20031;-83
2023/01/09 09:12:04;;;;;;;3.70;0.50;;;7.20;68.00;;;;;;4971534;28;20026;-83
2023/01/09 09:17:14;;;;;;;5.10;0.82;;;7.20;64.20;;;;;;4971027;28;20038;-74
2023/01/09 09:19:41;;;;;;;9.50;1.10;;;6.90;65.20;;;;;;4972085;28;20103;-75
2023/01/09 09:22:07;;;;;;;2.67;0.90;;;6.80;66.90;;;;;;4983794;28;20023;-75
2023/01/09 09:24:32;;;;;;;3.22;0.60;;;6.70;67.60;;;;;;4975035;28;20050;-75
2023/01/09 09:26:58;;;;;;;6.88;1.45;;;6.80;67.60;;;;;;4971145;28;20057;-76
2023/01/09 09:29:23;;;;;;;4.43;0.80;;;6.70;67.80;;;;;;4971056;28;20027;-75
2023/01/09 09:31:49;;;;;;;6.85;1.13;;;6.60;68.70;;;;;;4975507;28;20030;-75
2023/01/09 09:34:15;;;;;;;4.63;0.85;;;6.60;68.80;;;;;;4969585;28;20035;-75
2023/01/09 09:36:40;;;;;;;1.90;0.65;;;6.60;68.10;;;;;;4978384;28;20027;-75
2023/01/09 09:39:07;;;;;;;6.63;1.10;;;6.60;68.20;;;;;;4989546;28;20036;-75
2023/01/09 09:44:48;;;;;;;6.43;0.80;;;6.30;69.70;;;;;;4989337;28;20033;-75
2023/01/09 09:47:28;;;;;;;5.65;0.77;;;6.20;70.10;;;;;;4990099;28;20052;-74
2023/01/09 09:50:26;;;;;;;5.88;1.45;;;6.30;69.10;;;;;;4989954;28;20023;-75
2023/01/09 09:53:03;;;;;;;11.75;1.70;;;6.60;68.50;;;;;;4989740;28;20047;-74
2023/01/09 09:55:33;;;;;;;9.32;1.63;;;7.00;67.60;;;;;;4990260;28;20297;-75
2023/01/09 09:58:02;;;;;;;5.68;0.90;;;7.30;65.90;;;;;;4990022;28;20462;-75
2023/01/09 10:00:28;;;;;;;2.38;0.85;;;7.40;64.90;;;;;;4990411;28;20038;-74
2023/01/09 10:03:01;;;;;;;6.50;0.90;;;7.30;64.90;;;;;;4993278;28;20027;-75
2023/01/09 10:05:31;;;;;;;7.07;1.10;;;7.20;65.00;;;;;;4975835;28;20030;-74
2023/01/09 10:08:04;;;;;;;10.38;1.17;;;7.10;66.20;;;;;;5003537;28;20077;-74
2023/01/09 10:10:38;;;;;;;5.63;1.10;;;7.10;65.00;;;;;;5028744;28;20698;-74
2023/01/09 10:16:14;;;;;;;9.23;0.95;;;6.90;65.20;;;;;;5075561;28;20098;-78
2023/01/09 10:18:48;;;;;;;6.03;1.48;;;6.80;64.40;;;;;;5055610;28;20037;-76
2023/01/09 10:21:48;;;;;;;7.03;1.40;;;6.80;64.60;;;;;;5075524;28;20051;-78
2023/01/09 10:25:15;;;;;;;10.43;1.88;;;6.70;65.50;;;;;;5075425;28;20052;-78
2023/01/09 10:28:02;;;;;;;8.15;1.05;;;6.60;66.20;;;;;;4993836;28;20032;-74
2023/01/09 10:30:40;;;;;;;7.85;1.00;;;6.50;65.70;;;;;;5070264;28;20048;-74
2023/01/09 10:33:19;;;;;;;8.77;1.35;;;6.40;66.10;;;;;;5028486;28;20050;-74
2023/01/09 10:35:50;;;;;;;7.45;1.35;;;6.40;66.00;;;;;;4975269;28;20042;-75
2023/01/09 10:38:24;;;;;;;6.25;1.33;;;6.50;66.60;;;;;;4991987;28;20661;-74
2023/01/09 10:40:58;;;;;;;5.20;1.10;;;6.40;66.90;;;;;;4955470;28;20215;-75
2023/01/09 10:43:36;;;;;;;11.02;1.83;;;6.40;66.40;;;;;;4972940;28;20019;-74
2023/01/09 10:46:06;;;;;;;4.90;0.73;;;6.50;66.10;;;;;;4973042;28;20145;-74
2023/01/09 10:48:35;;;;;;;5.10;0.80;;;6.60;65.50;;;;;;4973061;28;20015;-75
2023/01/09 10:51:01;;;;;;;8.23;1.70;;;6.60;65.30;;;;;;4972629;28;20035;-74
2023/01/09 10:53:38;;;;;;;10.32;1.67;;;6.60;66.20;;;;;;4995705;28;20057;-74
2023/01/09 10:56:24;;;;;;;6.10;1.48;;;6.70;66.00;;;;;;5074778;28;20031;-74
2023/01/09 10:58:52;;;;;;;8.73;1.63;;;6.70;66.20;;;;;;5074566;28;20108;-73
2023/01/09 11:01:33;;;;;;;6.88;1.70;;;6.70;65.60;;;;;;5056478;28;20501;-74
2023/01/09 11:04:00;;;;;;;3.63;0.82;;;6.70;66.00;;;;;;5074694;28;20025;-72
2023/01/09 11:06:39;;;;;;;15.32;1.83;;;6.70;65.70;;;;;;5074446;28;20029;-74
2023/01/09 11:09:06;;;;;;;5.50;0.95;;;6.70;66.60;;;;;;5074089;28;20024;-74
2023/01/09 11:11:35;;;;;;;6.57;1.23;;;6.60;66.30;;;;;;5074273;28;20021;-74
2023/01/09 11:14:17;;;;;;;7.20;1.20;;;6.70;66.00;;;;;;5073268;28;20103;-74
2023/01/09 11:16:52;;;;;;;9.15;1.35;;;6.70;67.10;;;;;;5056249;28;20024;-74
2023/01/09 11:19:18;;;;;;;8.55;2.03;;;6.80;65.60;;;;;;5074548;28;20509;-76
2023/01/09 11:21:44;;;;;;;6.90;1.58;;;6.70;65.80;;;;;;5074160;28;20079;-73
2023/01/09 11:24:18;;;;;;;4.38;1.40;;;6.80;65.40;;;;;;5074375;28;20089;-75
2023/01/09 11:26:49;;;;;;;4.13;1.20;;;6.70;66.30;;;;;;5074521;28;20109;-75
2023/01/09 11:29:20;;;;;;;8.70;1.27;;;6.70;66.90;;;;;;5073946;28;20029;-75
2023/01/09 11:31:57;;;;;;;8.45;1.88;;;6.70;66.10;;;;;;5074183;28;20055;-74
2023/01/09 11:34:26;;;;;;;6.93;1.20;;;6.80;66.00;;;;;;5074130;28;20021;-74
2023/01/09 11:37:00;;;;;;;8.13;1.23;;;6.80;65.70;;;;;;5074141;28;20027;-74
2023/01/09 11:39:29;;;;;;;6.85;1.15;;;6.80;65.70;;;;;;5074400;28;20024;-74
2023/01/09 11:41:57;;;;;;;7.95;1.58;;;6.80;65.50;;;;;;5073730;28;20411;-76
2023/01/09 11:44:24;;;;;;;4.45;1.35;;;6.90;65.70;;;;;;5074035;28;20025;-75
2023/01/09 11:46:49;;;;;;;7.45;1.20;;;6.90;65.70;;;;;;5081411;28;20021;-75
2023/01/09 11:49:21;;;;;;;8.25;2.05;;;7.00;65.00;;;;;;5078589;28;20033;-77
2023/01/09 11:52:16;;;;;;;5.30;1.27;;;7.20;64.70;;;;;;5073022;28;20491;-74
2023/01/09 11:55:07;;;;;;;7.70;1.65;;;7.40;64.30;;;;;;5072949;28;20025;-77
2023/01/09 11:57:33;;;;;;;5.63;1.20;;;7.20;64.00;;;;;;5072909;28;20427;-75
2023/01/09 12:00:02;;;;;;;4.85;1.02;;;7.10;64.60;;;;;;5072699;28;20021;-75
2023/01/09 12:02:52;;;;;;;9.40;1.10;;;7.00;65.40;;;;;;5072799;28;20063;-74
2023/01/09 12:05:28;;;;;;;5.32;1.10;;;6.90;65.80;;;;;;5072708;28;20028;-73
2023/01/09 12:08:09;;;;;;;6.38;1.00;;;6.90;65.60;;;;;;5055121;28;20564;-75
2023/01/09 12:10:58;;;;;;;6.63;1.30;;;6.80;67.60;;;;;;5054927;28;20562;-75
2023/01/09 12:13:35;;;;;;;8.95;1.05;;;6.70;69.40;;;;;;5053876;28;20048;-76
2023/01/09 12:16:09;;;;;;;5.57;0.85;;;6.70;71.40;;;;;;5072870;28;20035;-73
2023/01/09 12:19:12;;;;;;;6.88;1.00;;;6.50;73.00;;;;;;5072489;28;20093;-74
2023/01/09 12:21:49;;;;;;;5.07;0.88;;;6.30;75.20;;;;;;5054428;28;20025;-74
2023/01/09 12:24:29;;;;;;;7.32;0.98;;;6.30;76.50;;;;;;5072626;28;20020;-74
2023/01/09 12:27:15;;;;;;;7.60;1.38;;;6.10;78.60;;;;;;5073092;28;20020;-73
2023/01/09 12:29:46;;;;;;;;;;;5.90;79.60;;;;;;5072677;28;20497;-74
2023/01/09 12:32:29;;;;;;;4.35;0.88;;;5.80;78.70;;;;;;5072480;28;20047;-74
2023/01/09 12:35:06;;;;;;;2.65;0.95;;;5.60;80.00;;;;;;5072368;28;20024;-73
2023/01/09 12:37:56;;;;;;;7.75;0.95;;;5.60;81.20;;;;;;5072444;28;20017;-74
2023/01/09 12:40:46;;;;;;;4.03;0.73;;;5.60;80.70;;;;;;5054993;28;20420;-74
2023/01/09 12:43:27;;;;;;;2.42;0.50;;;5.70;80.40;;;;;;5073349;28;20085;-74
2023/01/09 12:46:13;;;;;;;3.75;0.50;;;5.70;80.00;;;;;;5072126;28;20024;-75
2023/01/09 12:48:53;;;;;;;2.40;0.50;;;5.80;80.00;;;;;;5073438;28;20029;-75
2023/01/09 12:51:24;;;;;;;2.40;0.65;;;6.10;77.80;;;;;;5072513;28;20039;-73
2023/01/09 12:54:09;;;;;;;2.35;0.70;;;6.60;77.50;;;;;;5072465;28;20510;-74
2023/01/09 12:56:40;;;;;;;1.13;0.40;;;6.60;75.20;;;;;;5073207;28;20025;-74
2023/01/09 12:59:28;;;;;;;2.97;0.82;;;6.40;75.10;;;;;;5072906;28;20028;-73
2023/01/09 13:02:11;;;;;;;3.95;0.82;;;6.10;76.90;;;;;;5072951;28;20028;-73
2023/01/09 13:04:43;;;;;;;1.42;0.45;;;6.10;77.00;;;;;;5073098;28;20039;-74
2023/01/09 13:07:28;;;;;;;2.75;0.80;;;6.00;77.90;;;;;;5073036;28;20024;-73
2023/01/09 13:10:34;;;;;;;1.17;0.50;;;5.90;79.30;;;;;;5072470;28;20036;-74
2023/01/09 13:13:12;;;;;;;0.90;0.63;;;5.80;80.00;;;;;;5064874;28;20064;-73
2023/01/09 13:15:43;;;;;;;1.40;0.73;;;5.80;79.30;;;;;;5072803;28;20020;-73
2023/01/09 13:18:18;;;;;;;1.17;0.47;;;5.80;79.10;;;;;;5072843;28;20082;-74
2023/01/09 13:20:47;;;;;;;1.85;0.70;;;5.90;79.60;;;;;;5072102;28;20048;-73
2023/01/09 13:23:31;;;;;;;0.88;0.60;;;6.00;79.80;;;;;;5071998;28;20071;-74
2023/01/09 13:26:03;;;;;;;1.25;0.60;;;6.10;76.50;;;;;;5073972;28;20039;-74
2023/01/09 13:28:42;;;;;;;2.30;0.40;;;6.10;76.30;;;;;;5072975;28;20016;-74
2023/01/09 13:31:34;;;;;;;1.88;0.50;;;6.10;77.10;;;;;;5072788;28;20438;-74